Accueil
METAR-TAF:

METAR-TAF

Aéroports :

Aéroport d'Amsterdam-Schiphol

Amsterdam, Pays-Bas

latitude: 52-18N, longitude: 004-46E, altitude: -4 m

Observation

Le bulletin a été fait il y a 24 minutes, à 03:25 UTC
Vent 4 kt de ouest
Température 10°C
Humidité 93%
Pression 1012 hPa
Visibilité 10 km ou plus
Quelques nuages à une hauteur de 2500 ft

METAR: EHAM 020325Z 27004KT 9999 FEW025 10/09 Q1012 NOSIG

Heure: 05:49 (03:49 UTC)

Prévision

Le bulletin a été fait il y a 5 heures et 0 minutes, à 22:49 UTC
Prévision valable du 02 à 00 UTC au 03 à 06 UTC
Vent 6 kt de ouest/nord-ouest
Visibilité 10 km ou plus
Quelques nuages à une hauteur de 2500 ft
Evoluant progressivement
du 02 à 17 UTC au 02 à 20 UTC
Vent 3 kt de direction variable

TAF: EHAM 012249Z 0200/0306 29006KT 9999 FEW025 BECMG 0217/0220 VRB03KT

Observations et prévisions météorologiques de plus de 4000 aéroports (messages METAR et TAF).

Les stations disponibles sont représentées par des disques jaunes et rouges sur la carte.

Passer la souris dessus pour voir le nom de la station.

Cliquer dessus pour voir les observations et prévisions météorologiques.

Pour changer de carte: cliquez sur les boutons verts avec une croix noire pour zoomer, sur le bouton vert avec un tiret pour effectuer un zoom arrière, ou sur les flèches vertes pour les cartes adjacentes.


METAR-TAF: